sensor_id;sensor_type;location;lat;lon;timestamp;temperature;humidity
61004;DHT22;46889;37.310;13.582;2023-05-27T00:02:06;20.10;99.90
61004;DHT22;46889;37.310;13.582;2023-05-27T00:04:32;20.20;99.90
61004;DHT22;46889;37.310;13.582;2023-05-27T00:06:58;20.20;99.90
61004;DHT22;46889;37.310;13.582;2023-05-27T00:09:24;20.20;99.90
61004;DHT22;46889;37.310;13.582;2023-05-27T00:11:50;20.20;99.90
61004;DHT22;46889;37.310;13.582;2023-05-27T00:14:17;20.20;99.90
61004;DHT22;46889;37.310;13.582;2023-05-27T00:16:43;20.20;99.90
61004;DHT22;46889;37.310;13.582;2023-05-27T00:19:09;20.20;99.90
61004;DHT22;46889;37.310;13.582;2023-05-27T00:21:35;20.20;99.90
61004;DHT22;46889;37.310;13.582;2023-05-27T00:24:02;20.20;99.90
61004;DHT22;46889;37.310;13.582;2023-05-27T00:26:29;20.20;99.90
61004;DHT22;46889;37.310;13.582;2023-05-27T00:28:55;20.20;99.90
61004;DHT22;46889;37.310;13.582;2023-05-27T00:31:21;20.10;99.90
61004;DHT22;46889;37.310;13.582;2023-05-27T00:33:48;20.10;99.90
61004;DHT22;46889;37.310;13.582;2023-05-27T00:36:15;20.10;99.90
61004;DHT22;46889;37.310;13.582;2023-05-27T00:38:41;20.10;99.90
61004;DHT22;46889;37.310;13.582;2023-05-27T00:41:11;20.10;99.90
61004;DHT22;46889;37.310;13.582;2023-05-27T00:43:38;20.00;99.90
61004;DHT22;46889;37.310;13.582;2023-05-27T00:46:04;20.10;99.90
61004;DHT22;46889;37.310;13.582;2023-05-27T00:48:31;20.10;99.90
61004;DHT22;46889;37.310;13.582;2023-05-27T00:50:57;20.10;99.90
61004;DHT22;46889;37.310;13.582;2023-05-27T00:53:24;20.00;99.90
61004;DHT22;46889;37.310;13.582;2023-05-27T00:55:53;19.90;99.90
61004;DHT22;46889;37.310;13.582;2023-05-27T00:58:21;19.90;99.90
61004;DHT22;46889;37.310;13.582;2023-05-27T01:00:49;19.90;99.90
61004;DHT22;46889;37.310;13.582;2023-05-27T01:03:16;19.90;99.90
61004;DHT22;46889;37.310;13.582;2023-05-27T01:05:42;19.80;99.90
61004;DHT22;46889;37.310;13.582;2023-05-27T01:11:12;19.80;99.90
61004;DHT22;46889;37.310;13.582;2023-05-27T01:13:43;19.80;99.90
61004;DHT22;46889;37.310;13.582;2023-05-27T01:16:13;19.80;99.90
61004;DHT22;46889;37.310;13.582;2023-05-27T01:18:44;19.80;99.90
61004;DHT22;46889;37.310;13.582;2023-05-27T01:21:13;19.80;99.90
61004;DHT22;46889;37.310;13.582;2023-05-27T01:23:43;19.80;99.90
61004;DHT22;46889;37.310;13.582;2023-05-27T01:26:10;19.80;99.90
61004;DHT22;46889;37.310;13.582;2023-05-27T01:28:36;19.90;99.90
61004;DHT22;46889;37.310;13.582;2023-05-27T01:31:21;19.90;99.90
61004;DHT22;46889;37.310;13.582;2023-05-27T01:33:59;19.90;99.90
61004;DHT22;46889;37.310;13.582;2023-05-27T01:36:28;19.90;99.90
61004;DHT22;46889;37.310;13.582;2023-05-27T01:38:57;19.90;99.90
61004;DHT22;46889;37.310;13.582;2023-05-27T01:41:24;20.00;99.90
61004;DHT22;46889;37.310;13.582;2023-05-27T01:43:52;20.00;99.90
61004;DHT22;46889;37.310;13.582;2023-05-27T01:46:18;19.90;99.90
61004;DHT22;46889;37.310;13.582;2023-05-27T01:48:45;19.90;99.90
61004;DHT22;46889;37.310;13.582;2023-05-27T01:51:11;19.90;99.90
61004;DHT22;46889;37.310;13.582;2023-05-27T01:53:37;19.90;99.90
61004;DHT22;46889;37.310;13.582;2023-05-27T01:56:03;19.90;99.90
61004;DHT22;46889;37.310;13.582;2023-05-27T01:58:29;19.90;99.90
61004;DHT22;46889;37.310;13.582;2023-05-27T02:00:55;19.90;99.90
61004;DHT22;46889;37.310;13.582;2023-05-27T02:03:21;19.80;99.90
61004;DHT22;46889;37.310;13.582;2023-05-27T02:05:48;19.80;99.90
61004;DHT22;46889;37.310;13.582;2023-05-27T02:08:14;19.80;99.90
61004;DHT22;46889;37.310;13.582;2023-05-27T02:10:40;19.70;99.90
61004;DHT22;46889;37.310;13.582;2023-05-27T02:13:06;19.70;99.90
61004;DHT22;46889;37.310;13.582;2023-05-27T02:15:32;19.80;99.90
61004;DHT22;46889;37.310;13.582;2023-05-27T02:17:58;19.80;99.90
61004;DHT22;46889;37.310;13.582;2023-05-27T02:20:24;19.80;99.90
61004;DHT22;46889;37.310;13.582;2023-05-27T02:22:51;19.80;99.90
61004;DHT22;46889;37.310;13.582;2023-05-27T02:25:17;19.90;99.90
61004;DHT22;46889;37.310;13.582;2023-05-27T02:27:43;19.80;99.90
61004;DHT22;46889;37.310;13.582;2023-05-27T02:30:14;19.80;99.90
61004;DHT22;46889;37.310;13.582;2023-05-27T02:32:41;19.90;99.90
61004;DHT22;46889;37.310;13.582;2023-05-27T02:35:07;19.80;99.90
61004;DHT22;46889;37.310;13.582;2023-05-27T02:37:34;19.90;99.90
61004;DHT22;46889;37.310;13.582;2023-05-27T02:40:00;19.90;99.90
61004;DHT22;46889;37.310;13.582;2023-05-27T02:42:26;19.80;99.90
61004;DHT22;46889;37.310;13.582;2023-05-27T02:44:52;19.80;99.90
61004;DHT22;46889;37.310;13.582;2023-05-27T02:47:19;19.90;99.90
61004;DHT22;46889;37.310;13.582;2023-05-27T02:49:45;19.90;99.90
61004;DHT22;46889;37.310;13.582;2023-05-27T02:52:11;19.80;99.90
61004;DHT22;46889;37.310;13.582;2023-05-27T02:54:37;19.80;99.90
61004;DHT22;46889;37.310;13.582;2023-05-27T02:57:04;19.90;99.90
61004;DHT22;46889;37.310;13.582;2023-05-27T02:59:32;19.80;99.90
61004;DHT22;46889;37.310;13.582;2023-05-27T03:01:58;19.80;99.90
61004;DHT22;46889;37.310;13.582;2023-05-27T03:04:24;19.80;99.90
61004;DHT22;46889;37.310;13.582;2023-05-27T03:06:51;19.90;99.90
61004;DHT22;46889;37.310;13.582;2023-05-27T03:09:18;19.70;99.90
61004;DHT22;46889;37.310;13.582;2023-05-27T03:11:44;19.70;99.90
61004;DHT22;46889;37.310;13.582;2023-05-27T03:14:10;19.80;99.90
61004;DHT22;46889;37.310;13.582;2023-05-27T03:16:36;19.70;99.90
61004;DHT22;46889;37.310;13.582;2023-05-27T03:19:02;19.70;99.90
61004;DHT22;46889;37.310;13.582;2023-05-27T03:21:29;19.80;99.90
61004;DHT22;46889;37.310;13.582;2023-05-27T03:23:55;19.80;99.90
61004;DHT22;46889;37.310;13.582;2023-05-27T03:26:21;19.80;99.90
61004;DHT22;46889;37.310;13.582;2023-05-27T03:28:47;19.90;99.90
61004;DHT22;46889;37.310;13.582;2023-05-27T03:31:13;19.90;99.90
61004;DHT22;46889;37.310;13.582;2023-05-27T03:33:39;19.80;99.90
61004;DHT22;46889;37.310;13.582;2023-05-27T03:36:06;19.80;99.90
61004;DHT22;46889;37.310;13.582;2023-05-27T03:38:32;19.90;99.90
61004;DHT22;46889;37.310;13.582;2023-05-27T03:40:58;19.90;99.90
61004;DHT22;46889;37.310;13.582;2023-05-27T03:43:25;19.90;99.90
61004;DHT22;46889;37.310;13.582;2023-05-27T03:45:51;19.90;99.90
61004;DHT22;46889;37.310;13.582;2023-05-27T03:48:17;19.80;99.90
61004;DHT22;46889;37.310;13.582;2023-05-27T03:50:45;19.80;99.90
61004;DHT22;46889;37.310;13.582;2023-05-27T03:53:15;19.80;99.90
61004;DHT22;46889;37.310;13.582;2023-05-27T03:55:42;19.80;99.90
61004;DHT22;46889;37.310;13.582;2023-05-27T03:58:08;19.80;99.90
61004;DHT22;46889;37.310;13.582;2023-05-27T04:00:34;19.80;99.90
61004;DHT22;46889;37.310;13.582;2023-05-27T04:03:02;19.80;99.90
61004;DHT22;46889;37.310;13.582;2023-05-27T04:05:28;19.90;99.90
61004;DHT22;46889;37.310;13.582;2023-05-27T04:07:54;19.90;99.90
61004;DHT22;46889;37.310;13.582;2023-05-27T04:10:20;19.90;99.90
61004;DHT22;46889;37.310;13.582;2023-05-27T04:12:46;19.80;99.90
61004;DHT22;46889;37.310;13.582;2023-05-27T04:15:12;19.90;99.90
61004;DHT22;46889;37.310;13.582;2023-05-27T04:17:38;19.70;99.90
61004;DHT22;46889;37.310;13.582;2023-05-27T04:20:05;19.70;99.90
61004;DHT22;46889;37.310;13.582;2023-05-27T04:22:42;19.70;99.90
61004;DHT22;46889;37.310;13.582;2023-05-27T04:25:09;19.70;99.90
61004;DHT22;46889;37.310;13.582;2023-05-27T04:27:35;19.70;99.90
61004;DHT22;46889;37.310;13.582;2023-05-27T04:30:07;19.70;99.90
61004;DHT22;46889;37.310;13.582;2023-05-27T04:32:34;19.60;99.90
61004;DHT22;46889;37.310;13.582;2023-05-27T04:35:06;19.60;99.90
61004;DHT22;46889;37.310;13.582;2023-05-27T04:37:34;19.70;99.90
61004;DHT22;46889;37.310;13.582;2023-05-27T04:40:03;19.80;99.90
61004;DHT22;46889;37.310;13.582;2023-05-27T04:42:30;20.00;99.90
61004;DHT22;46889;37.310;13.582;2023-05-27T04:44:58;20.10;99.90
61004;DHT22;46889;37.310;13.582;2023-05-27T04:47:25;20.10;99.90
61004;DHT22;46889;37.310;13.582;2023-05-27T04:49:51;20.20;99.90
61004;DHT22;46889;37.310;13.582;2023-05-27T04:52:17;20.10;99.90
61004;DHT22;46889;37.310;13.582;2023-05-27T04:54:47;20.20;99.90
61004;DHT22;46889;37.310;13.582;2023-05-27T04:57:13;20.20;99.90
61004;DHT22;46889;37.310;13.582;2023-05-27T04:59:44;20.20;99.90
61004;DHT22;46889;37.310;13.582;2023-05-27T05:02:34;20.30;99.90
61004;DHT22;46889;37.310;13.582;2023-05-27T05:05:01;21.10;99.90
61004;DHT22;46889;37.310;13.582;2023-05-27T05:07:28;22.30;99.90
61004;DHT22;46889;37.310;13.582;2023-05-27T05:09:55;23.70;99.90
61004;DHT22;46889;37.310;13.582;2023-05-27T05:12:22;24.50;99.90
61004;DHT22;46889;37.310;13.582;2023-05-27T05:14:47;25.20;99.90
61004;DHT22;46889;37.310;13.582;2023-05-27T05:17:13;25.70;99.90
61004;DHT22;46889;37.310;13.582;2023-05-27T05:19:39;26.60;99.90
61004;DHT22;46889;37.310;13.582;2023-05-27T05:22:05;26.90;99.90
61004;DHT22;46889;37.310;13.582;2023-05-27T05:24:32;27.00;99.90
61004;DHT22;46889;37.310;13.582;2023-05-27T05:26:58;27.70;99.90
61004;DHT22;46889;37.310;13.582;2023-05-27T05:29:24;27.70;99.90
61004;DHT22;46889;37.310;13.582;2023-05-27T05:31:50;27.80;99.90
61004;DHT22;46889;37.310;13.582;2023-05-27T05:34:16;28.00;99.90
61004;DHT22;46889;37.310;13.582;2023-05-27T05:36:42;28.00;99.90
61004;DHT22;46889;37.310;13.582;2023-05-27T05:39:08;28.50;99.90
61004;DHT22;46889;37.310;13.582;2023-05-27T05:41:34;29.90;99.90
61004;DHT22;46889;37.310;13.582;2023-05-27T05:44:00;29.80;99.90
61004;DHT22;46889;37.310;13.582;2023-05-27T05:46:26;29.90;99.90
61004;DHT22;46889;37.310;13.582;2023-05-27T05:48:52;30.40;99.90
61004;DHT22;46889;37.310;13.582;2023-05-27T05:51:19;30.40;99.90
61004;DHT22;46889;37.310;13.582;2023-05-27T05:53:45;30.70;99.90
61004;DHT22;46889;37.310;13.582;2023-05-27T05:56:11;31.00;99.90
61004;DHT22;46889;37.310;13.582;2023-05-27T05:58:37;31.10;99.90
61004;DHT22;46889;37.310;13.582;2023-05-27T06:01:03;31.20;99.90
61004;DHT22;46889;37.310;13.582;2023-05-27T06:03:30;31.60;99.90
61004;DHT22;46889;37.310;13.582;2023-05-27T06:05:56;31.90;99.90
61004;DHT22;46889;37.310;13.582;2023-05-27T06:08:22;31.60;99.90
61004;DHT22;46889;37.310;13.582;2023-05-27T06:10:48;31.70;99.90
61004;DHT22;46889;37.310;13.582;2023-05-27T06:13:14;32.30;99.90
61004;DHT22;46889;37.310;13.582;2023-05-27T06:15:40;32.70;99.90
61004;DHT22;46889;37.310;13.582;2023-05-27T06:18:06;32.80;99.90
61004;DHT22;46889;37.310;13.582;2023-05-27T06:20:32;33.30;99.90
61004;DHT22;46889;37.310;13.582;2023-05-27T06:22:58;33.70;99.90
61004;DHT22;46889;37.310;13.582;2023-05-27T06:25:24;36.60;99.90
61004;DHT22;46889;37.310;13.582;2023-05-27T06:27:50;36.70;99.90
61004;DHT22;46889;37.310;13.582;2023-05-27T06:30:16;38.00;99.90
61004;DHT22;46889;37.310;13.582;2023-05-27T06:32:42;39.30;98.10
61004;DHT22;46889;37.310;13.582;2023-05-27T06:35:08;38.50;97.30
61004;DHT22;46889;37.310;13.582;2023-05-27T06:37:35;38.30;97.50
61004;DHT22;46889;37.310;13.582;2023-05-27T06:40:01;39.40;96.00
61004;DHT22;46889;37.310;13.582;2023-05-27T06:42:27;39.90;94.70
61004;DHT22;46889;37.310;13.582;2023-05-27T06:44:53;39.30;94.40
61004;DHT22;46889;37.310;13.582;2023-05-27T06:47:20;38.40;94.40
61004;DHT22;46889;37.310;13.582;2023-05-27T06:49:47;37.30;95.40
61004;DHT22;46889;37.310;13.582;2023-05-27T06:52:13;38.60;95.80
61004;DHT22;46889;37.310;13.582;2023-05-27T06:54:39;38.50;95.60
61004;DHT22;46889;37.310;13.582;2023-05-27T06:57:05;38.10;95.90
61004;DHT22;46889;37.310;13.582;2023-05-27T06:59:31;38.70;95.70
61004;DHT22;46889;37.310;13.582;2023-05-27T07:01:57;39.30;94.90
61004;DHT22;46889;37.310;13.582;2023-05-27T07:04:27;37.90;95.40
61004;DHT22;46889;37.310;13.582;2023-05-27T07:06:54;37.50;96.50
61004;DHT22;46889;37.310;13.582;2023-05-27T07:09:24;38.40;95.50
61004;DHT22;46889;37.310;13.582;2023-05-27T07:11:51;39.20;94.70
61004;DHT22;46889;37.310;13.582;2023-05-27T07:14:17;39.10;94.40
61004;DHT22;46889;37.310;13.582;2023-05-27T07:16:43;39.10;94.70
61004;DHT22;46889;37.310;13.582;2023-05-27T07:19:09;38.10;95.20
61004;DHT22;46889;37.310;13.582;2023-05-27T07:21:36;35.40;96.90
61004;DHT22;46889;37.310;13.582;2023-05-27T07:24:02;33.80;98.90
61004;DHT22;46889;37.310;13.582;2023-05-27T07:26:32;33.50;99.00
61004;DHT22;46889;37.310;13.582;2023-05-27T07:28:59;33.80;99.90
61004;DHT22;46889;37.310;13.582;2023-05-27T07:31:28;34.10;99.50
61004;DHT22;46889;37.310;13.582;2023-05-27T07:33:54;33.60;99.90
61004;DHT22;46889;37.310;13.582;2023-05-27T07:36:21;33.60;99.60
61004;DHT22;46889;37.310;13.582;2023-05-27T07:38:47;33.50;99.70
61004;DHT22;46889;37.310;13.582;2023-05-27T07:41:13;33.10;99.90
61004;DHT22;46889;37.310;13.582;2023-05-27T07:43:40;32.70;99.90
61004;DHT22;46889;37.310;13.582;2023-05-27T07:46:07;32.20;99.90
61004;DHT22;46889;37.310;13.582;2023-05-27T07:48:33;31.50;99.90
61004;DHT22;46889;37.310;13.582;2023-05-27T07:50:58;31.50;99.90
61004;DHT22;46889;37.310;13.582;2023-05-27T07:53:24;31.30;99.90
61004;DHT22;46889;37.310;13.582;2023-05-27T07:55:50;31.00;99.90
61004;DHT22;46889;37.310;13.582;2023-05-27T07:58:16;30.70;99.90
61004;DHT22;46889;37.310;13.582;2023-05-27T08:00:42;30.70;99.90
61004;DHT22;46889;37.310;13.582;2023-05-27T08:03:08;31.20;99.90
61004;DHT22;46889;37.310;13.582;2023-05-27T08:05:35;30.90;99.90
61004;DHT22;46889;37.310;13.582;2023-05-27T08:08:01;30.80;99.90
61004;DHT22;46889;37.310;13.582;2023-05-27T08:10:27;31.00;99.90
61004;DHT22;46889;37.310;13.582;2023-05-27T08:12:53;31.20;99.90
61004;DHT22;46889;37.310;13.582;2023-05-27T08:15:19;31.40;99.90
61004;DHT22;46889;37.310;13.582;2023-05-27T08:17:45;31.00;99.90
61004;DHT22;46889;37.310;13.582;2023-05-27T08:20:11;30.70;99.90
61004;DHT22;46889;37.310;13.582;2023-05-27T08:22:38;30.40;99.90
61004;DHT22;46889;37.310;13.582;2023-05-27T08:25:06;30.50;99.90
61004;DHT22;46889;37.310;13.582;2023-05-27T08:27:50;30.40;99.90
61004;DHT22;46889;37.310;13.582;2023-05-27T08:30:20;30.20;99.90
61004;DHT22;46889;37.310;13.582;2023-05-27T08:32:49;30.20;99.90
61004;DHT22;46889;37.310;13.582;2023-05-27T08:35:16;30.30;99.90
61004;DHT22;46889;37.310;13.582;2023-05-27T08:37:43;30.50;99.90
61004;DHT22;46889;37.310;13.582;2023-05-27T08:40:15;30.50;99.90
61004;DHT22;46889;37.310;13.582;2023-05-27T08:42:42;30.50;99.90
61004;DHT22;46889;37.310;13.582;2023-05-27T08:45:11;30.20;99.90
61004;DHT22;46889;37.310;13.582;2023-05-27T08:47:38;30.30;99.90
61004;DHT22;46889;37.310;13.582;2023-05-27T08:50:06;30.80;99.90
61004;DHT22;46889;37.310;13.582;2023-05-27T08:52:33;30.40;99.90
61004;DHT22;46889;37.310;13.582;2023-05-27T08:55:02;29.80;99.90
61004;DHT22;46889;37.310;13.582;2023-05-27T08:57:29;29.60;99.90
61004;DHT22;46889;37.310;13.582;2023-05-27T08:59:56;29.70;99.90
61004;DHT22;46889;37.310;13.582;2023-05-27T09:02:22;29.90;99.90
61004;DHT22;46889;37.310;13.582;2023-05-27T09:04:50;29.70;99.90
61004;DHT22;46889;37.310;13.582;2023-05-27T09:07:19;29.50;99.90
61004;DHT22;46889;37.310;13.582;2023-05-27T09:09:57;29.60;99.90
61004;DHT22;46889;37.310;13.582;2023-05-27T09:12:28;29.70;99.90
61004;DHT22;46889;37.310;13.582;2023-05-27T09:14:54;29.80;99.90
61004;DHT22;46889;37.310;13.582;2023-05-27T09:17:25;29.00;99.90
61004;DHT22;46889;37.310;13.582;2023-05-27T09:19:52;29.50;99.90
61004;DHT22;46889;37.310;13.582;2023-05-27T09:22:30;29.70;99.90
61004;DHT22;46889;37.310;13.582;2023-05-27T09:24:56;29.50;99.90
61004;DHT22;46889;37.310;13.582;2023-05-27T09:27:30;29.50;99.90
61004;DHT22;46889;37.310;13.582;2023-05-27T09:30:05;29.50;99.90
61004;DHT22;46889;37.310;13.582;2023-05-27T09:32:32;29.20;99.90
61004;DHT22;46889;37.310;13.582;2023-05-27T09:35:00;29.40;99.90
61004;DHT22;46889;37.310;13.582;2023-05-27T09:37:31;29.50;99.90
61004;DHT22;46889;37.310;13.582;2023-05-27T09:39:59;29.60;99.90
61004;DHT22;46889;37.310;13.582;2023-05-27T09:42:25;29.40;99.90
61004;DHT22;46889;37.310;13.582;2023-05-27T09:44:53;29.00;99.90
61004;DHT22;46889;37.310;13.582;2023-05-27T09:47:21;28.80;99.90
61004;DHT22;46889;37.310;13.582;2023-05-27T09:49:49;29.30;99.90
61004;DHT22;46889;37.310;13.582;2023-05-27T09:52:19;29.30;99.90
61004;DHT22;46889;37.310;13.582;2023-05-27T09:54:48;29.40;99.90
61004;DHT22;46889;37.310;13.582;2023-05-27T09:57:15;29.30;99.90
61004;DHT22;46889;37.310;13.582;2023-05-27T09:59:42;29.50;99.90
61004;DHT22;46889;37.310;13.582;2023-05-27T10:02:13;29.20;99.90
61004;DHT22;46889;37.310;13.582;2023-05-27T10:04:43;29.30;99.90
61004;DHT22;46889;37.310;13.582;2023-05-27T10:07:09;29.30;99.90
61004;DHT22;46889;37.310;13.582;2023-05-27T10:09:36;29.30;99.90
61004;DHT22;46889;37.310;13.582;2023-05-27T10:12:04;29.50;99.90
61004;DHT22;46889;37.310;13.582;2023-05-27T10:14:31;29.30;99.90
61004;DHT22;46889;37.310;13.582;2023-05-27T10:16:57;29.10;99.90
61004;DHT22;46889;37.310;13.582;2023-05-27T10:19:23;29.00;99.90
61004;DHT22;46889;37.310;13.582;2023-05-27T10:21:49;29.00;99.90
61004;DHT22;46889;37.310;13.582;2023-05-27T10:24:17;28.90;99.90
61004;DHT22;46889;37.310;13.582;2023-05-27T10:26:45;29.20;99.90
61004;DHT22;46889;37.310;13.582;2023-05-27T10:29:17;29.40;99.90
61004;DHT22;46889;37.310;13.582;2023-05-27T10:31:47;29.20;99.90
61004;DHT22;46889;37.310;13.582;2023-05-27T10:34:15;28.90;99.90
61004;DHT22;46889;37.310;13.582;2023-05-27T10:36:45;29.20;99.90
61004;DHT22;46889;37.310;13.582;2023-05-27T10:39:18;29.50;99.90
61004;DHT22;46889;37.310;13.582;2023-05-27T10:41:55;29.50;99.90
61004;DHT22;46889;37.310;13.582;2023-05-27T10:44:35;29.70;99.90
61004;DHT22;46889;37.310;13.582;2023-05-27T10:49:29;30.00;99.90
61004;DHT22;46889;37.310;13.582;2023-05-27T10:52:12;29.90;99.90
61004;DHT22;46889;37.310;13.582;2023-05-27T10:54:45;29.60;99.90
61004;DHT22;46889;37.310;13.582;2023-05-27T10:57:12;29.80;99.90
61004;DHT22;46889;37.310;13.582;2023-05-27T10:59:50;29.90;99.90
61004;DHT22;46889;37.310;13.582;2023-05-27T11:02:17;30.10;99.90
61004;DHT22;46889;37.310;13.582;2023-05-27T11:04:43;30.10;99.90
61004;DHT22;46889;37.310;13.582;2023-05-27T11:07:09;30.00;99.90
61004;DHT22;46889;37.310;13.582;2023-05-27T11:09:54;30.30;99.90
61004;DHT22;46889;37.310;13.582;2023-05-27T11:12:22;30.40;99.90
61004;DHT22;46889;37.310;13.582;2023-05-27T11:14:50;30.10;99.90
61004;DHT22;46889;37.310;13.582;2023-05-27T11:17:17;30.00;99.90
61004;DHT22;46889;37.310;13.582;2023-05-27T11:19:43;29.40;99.90
61004;DHT22;46889;37.310;13.582;2023-05-27T11:22:13;29.20;99.90
61004;DHT22;46889;37.310;13.582;2023-05-27T11:24:39;29.20;99.90
61004;DHT22;46889;37.310;13.582;2023-05-27T11:27:13;29.30;99.90
61004;DHT22;46889;37.310;13.582;2023-05-27T11:29:50;29.30;99.90
61004;DHT22;46889;37.310;13.582;2023-05-27T11:32:20;29.10;99.90
61004;DHT22;46889;37.310;13.582;2023-05-27T11:34:46;28.70;99.90
61004;DHT22;46889;37.310;13.582;2023-05-27T11:37:13;28.10;99.90
61004;DHT22;46889;37.310;13.582;2023-05-27T11:39:49;28.00;99.90
61004;DHT22;46889;37.310;13.582;2023-05-27T11:42:23;28.30;99.90
61004;DHT22;46889;37.310;13.582;2023-05-27T11:44:53;28.60;99.90
61004;DHT22;46889;37.310;13.582;2023-05-27T11:47:20;28.70;99.90
61004;DHT22;46889;37.310;13.582;2023-05-27T11:49:50;28.80;99.90
61004;DHT22;46889;37.310;13.582;2023-05-27T11:52:16;28.70;99.90
61004;DHT22;46889;37.310;13.582;2023-05-27T11:54:42;28.00;99.90
61004;DHT22;46889;37.310;13.582;2023-05-27T11:57:09;27.70;99.90
61004;DHT22;46889;37.310;13.582;2023-05-27T11:59:38;27.40;99.90
61004;DHT22;46889;37.310;13.582;2023-05-27T12:02:04;27.50;99.90
61004;DHT22;46889;37.310;13.582;2023-05-27T12:04:31;27.30;99.90
61004;DHT22;46889;37.310;13.582;2023-05-27T12:06:57;27.20;99.90
61004;DHT22;46889;37.310;13.582;2023-05-27T12:09:23;27.40;99.90
61004;DHT22;46889;37.310;13.582;2023-05-27T12:11:49;27.50;99.90
61004;DHT22;46889;37.310;13.582;2023-05-27T12:14:15;27.70;99.90
61004;DHT22;46889;37.310;13.582;2023-05-27T12:16:41;27.60;99.90
61004;DHT22;46889;37.310;13.582;2023-05-27T12:19:07;27.20;99.90
61004;DHT22;46889;37.310;13.582;2023-05-27T12:21:37;26.40;99.90
61004;DHT22;46889;37.310;13.582;2023-05-27T12:24:03;26.40;99.90
61004;DHT22;46889;37.310;13.582;2023-05-27T12:26:29;26.60;99.90
61004;DHT22;46889;37.310;13.582;2023-05-27T12:28:56;27.20;99.90
61004;DHT22;46889;37.310;13.582;2023-05-27T12:31:22;27.40;99.90
61004;DHT22;46889;37.310;13.582;2023-05-27T12:33:49;27.30;99.90
61004;DHT22;46889;37.310;13.582;2023-05-27T12:36:15;27.50;99.90
61004;DHT22;46889;37.310;13.582;2023-05-27T12:38:41;27.60;99.90
61004;DHT22;46889;37.310;13.582;2023-05-27T12:41:07;27.50;99.90
61004;DHT22;46889;37.310;13.582;2023-05-27T12:43:33;27.80;99.90
61004;DHT22;46889;37.310;13.582;2023-05-27T12:45:59;28.00;99.90
61004;DHT22;46889;37.310;13.582;2023-05-27T12:48:25;28.10;99.90
61004;DHT22;46889;37.310;13.582;2023-05-27T12:50:51;28.20;99.90
61004;DHT22;46889;37.310;13.582;2023-05-27T12:53:18;27.50;99.90
61004;DHT22;46889;37.310;13.582;2023-05-27T12:55:44;27.50;99.90
61004;DHT22;46889;37.310;13.582;2023-05-27T12:58:11;27.50;99.90
61004;DHT22;46889;37.310;13.582;2023-05-27T13:00:37;27.80;99.90
61004;DHT22;46889;37.310;13.582;2023-05-27T13:03:03;28.10;99.90
61004;DHT22;46889;37.310;13.582;2023-05-27T13:05:29;28.60;99.90
61004;DHT22;46889;37.310;13.582;2023-05-27T13:08:02;28.90;99.90
61004;DHT22;46889;37.310;13.582;2023-05-27T13:10:32;29.10;99.90
61004;DHT22;46889;37.310;13.582;2023-05-27T13:13:00;29.00;99.90
61004;DHT22;46889;37.310;13.582;2023-05-27T13:15:27;28.70;99.90
61004;DHT22;46889;37.310;13.582;2023-05-27T13:17:54;28.50;99.90
61004;DHT22;46889;37.310;13.582;2023-05-27T13:20:22;28.20;99.90
61004;DHT22;46889;37.310;13.582;2023-05-27T13:22:49;27.90;99.90
61004;DHT22;46889;37.310;13.582;2023-05-27T13:25:17;28.10;99.90
61004;DHT22;46889;37.310;13.582;2023-05-27T13:27:43;28.00;99.90
61004;DHT22;46889;37.310;13.582;2023-05-27T13:30:16;28.10;99.90
61004;DHT22;46889;37.310;13.582;2023-05-27T13:32:42;28.20;99.90
61004;DHT22;46889;37.310;13.582;2023-05-27T13:35:09;28.40;99.90
61004;DHT22;46889;37.310;13.582;2023-05-27T13:37:38;28.50;99.90
61004;DHT22;46889;37.310;13.582;2023-05-27T13:40:06;27.90;99.90
61004;DHT22;46889;37.310;13.582;2023-05-27T13:42:32;28.00;99.90
61004;DHT22;46889;37.310;13.582;2023-05-27T13:44:58;27.60;99.90
61004;DHT22;46889;37.310;13.582;2023-05-27T13:47:24;27.80;99.90
61004;DHT22;46889;37.310;13.582;2023-05-27T13:49:50;27.70;99.90
61004;DHT22;46889;37.310;13.582;2023-05-27T13:52:16;27.50;99.90
61004;DHT22;46889;37.310;13.582;2023-05-27T13:54:43;27.00;99.90
61004;DHT22;46889;37.310;13.582;2023-05-27T13:57:09;27.00;99.90
61004;DHT22;46889;37.310;13.582;2023-05-27T13:59:35;26.70;99.90
61004;DHT22;46889;37.310;13.582;2023-05-27T14:02:01;26.50;99.90
61004;DHT22;46889;37.310;13.582;2023-05-27T14:04:34;26.50;99.90
61004;DHT22;46889;37.310;13.582;2023-05-27T14:07:00;26.70;99.90
61004;DHT22;46889;37.310;13.582;2023-05-27T14:09:28;26.80;99.90
61004;DHT22;46889;37.310;13.582;2023-05-27T14:11:54;26.80;99.90
61004;DHT22;46889;37.310;13.582;2023-05-27T14:14:23;26.80;99.90
61004;DHT22;46889;37.310;13.582;2023-05-27T14:16:49;26.90;99.90
61004;DHT22;46889;37.310;13.582;2023-05-27T14:19:15;26.70;99.90
61004;DHT22;46889;37.310;13.582;2023-05-27T14:21:41;26.50;99.90
61004;DHT22;46889;37.310;13.582;2023-05-27T14:24:07;26.30;99.90
61004;DHT22;46889;37.310;13.582;2023-05-27T14:26:33;26.00;99.90
61004;DHT22;46889;37.310;13.582;2023-05-27T14:28:59;26.10;99.90
61004;DHT22;46889;37.310;13.582;2023-05-27T14:31:25;25.70;99.90
61004;DHT22;46889;37.310;13.582;2023-05-27T14:33:51;25.80;99.90
61004;DHT22;46889;37.310;13.582;2023-05-27T14:36:17;25.80;99.90
61004;DHT22;46889;37.310;13.582;2023-05-27T14:38:43;25.10;99.90
61004;DHT22;46889;37.310;13.582;2023-05-27T14:41:09;24.60;99.90
61004;DHT22;46889;37.310;13.582;2023-05-27T14:43:36;24.50;99.90
61004;DHT22;46889;37.310;13.582;2023-05-27T14:46:03;24.80;99.90
61004;DHT22;46889;37.310;13.582;2023-05-27T14:48:29;24.90;99.90
61004;DHT22;46889;37.310;13.582;2023-05-27T14:50:55;25.00;99.90
61004;DHT22;46889;37.310;13.582;2023-05-27T14:53:21;24.80;99.90
61004;DHT22;46889;37.310;13.582;2023-05-27T14:55:47;24.70;99.90
61004;DHT22;46889;37.310;13.582;2023-05-27T14:58:15;24.70;99.90
61004;DHT22;46889;37.310;13.582;2023-05-27T15:00:41;24.80;99.90
61004;DHT22;46889;37.310;13.582;2023-05-27T15:03:08;24.60;99.90
61004;DHT22;46889;37.310;13.582;2023-05-27T15:05:34;24.60;99.90
61004;DHT22;46889;37.310;13.582;2023-05-27T15:08:01;24.80;99.90
61004;DHT22;46889;37.310;13.582;2023-05-27T15:10:28;25.00;99.90
61004;DHT22;46889;37.310;13.582;2023-05-27T15:12:54;24.90;99.90
61004;DHT22;46889;37.310;13.582;2023-05-27T15:15:20;24.80;99.90
61004;DHT22;46889;37.310;13.582;2023-05-27T15:17:47;25.00;99.90
61004;DHT22;46889;37.310;13.582;2023-05-27T15:20:14;24.90;99.90
61004;DHT22;46889;37.310;13.582;2023-05-27T15:22:40;24.70;99.90